Time;durP1;ratioP1;P1;durP2;ratioP2;P2;SDS_P1;SDS_P2;PMS_P1;PMS_P2;Temp;Humidity;BMP_temperature;BMP_pressure;BME280_temperature;BME280_humidity;BME280_pressure;Samples;Min_cycle;Max_cycle;Signal;HPM_P1;HPM_P2
2023/12/24 05:03:03;;;;;;;0.90;0.80;;;8.00;97.30;;;;;;5095208;27;20536;-81
2023/12/24 05:05:28;;;;;;;0.97;0.87;;;8.00;97.30;;;;;;5084722;28;20517;-74
2023/12/24 05:07:54;;;;;;;1.10;1.00;;;8.00;97.30;;;;;;5085607;28;20297;-81
2023/12/24 05:10:19;;;;;;;0.80;0.70;;;8.10;97.30;;;;;;5084712;28;20178;-83
2023/12/24 05:12:46;;;;;;;0.83;0.73;;;8.10;97.30;;;;;;5048897;28;20190;-88
2023/12/24 05:15:11;;;;;;;0.93;0.83;;;8.10;97.30;;;;;;5048096;28;20183;-80
2023/12/24 05:17:37;;;;;;;0.90;0.80;;;8.10;97.30;;;;;;5057424;28;20460;-90
2023/12/24 05:20:03;;;;;;;0.80;0.70;;;8.20;97.30;;;;;;5048565;28;20171;-81
2023/12/24 05:22:28;;;;;;;1.00;0.90;;;8.20;97.30;;;;;;5065788;28;20215;-73
2023/12/24 05:24:54;;;;;;;1.47;0.93;;;8.10;97.30;;;;;;5065681;28;20560;-89
2023/12/24 05:27:19;;;;;;;1.00;1.00;;;8.10;97.30;;;;;;5048285;28;20634;-88
2023/12/24 05:29:45;;;;;;;0.80;0.70;;;8.10;97.30;;;;;;5066023;28;20190;-91
2023/12/24 05:32:10;;;;;;;1.00;0.90;;;8.10;97.30;;;;;;5042367;28;20238;-86
2023/12/24 05:34:36;;;;;;;0.80;0.70;;;8.10;97.30;;;;;;5045067;28;20237;-79
2023/12/24 05:37:01;;;;;;;0.87;0.77;;;8.10;97.30;;;;;;5047932;28;20271;-81
2023/12/24 05:39:27;;;;;;;1.10;1.00;;;8.10;97.30;;;;;;5065965;28;20179;-85
2023/12/24 05:41:52;;;;;;;1.00;0.90;;;8.10;97.30;;;;;;5048221;28;20352;-79
2023/12/24 05:44:18;;;;;;;0.80;0.70;;;8.10;97.30;;;;;;5065990;28;20180;-79
2023/12/24 05:46:43;;;;;;;0.90;0.80;;;8.10;97.30;;;;;;5065397;28;20680;-75
2023/12/24 05:49:09;;;;;;;1.30;1.20;;;8.10;97.30;;;;;;5066434;28;20180;-83
2023/12/24 05:51:34;;;;;;;0.90;0.80;;;8.10;97.30;;;;;;5066090;28;20203;-89
2023/12/24 05:54:00;;;;;;;0.80;0.70;;;8.10;97.30;;;;;;5047938;28;20198;-81
2023/12/24 05:56:25;;;;;;;0.80;0.70;;;8.20;97.30;;;;;;5048089;28;20224;-88
2023/12/24 05:58:51;;;;;;;0.90;0.80;;;8.20;97.30;;;;;;5067245;28;20191;-86
2023/12/24 06:01:17;;;;;;;1.00;0.90;;;8.20;97.30;;;;;;5078265;28;20247;-75
2023/12/24 06:03:42;;;;;;;0.90;0.80;;;8.20;97.30;;;;;;5064556;28;20192;-78
2023/12/24 06:06:08;;;;;;;0.80;0.70;;;8.30;97.30;;;;;;5067944;28;20174;-80
2023/12/24 06:08:33;;;;;;;3.10;2.70;;;8.40;97.30;;;;;;5064337;28;20171;-86
2023/12/24 06:10:59;;;;;;;0.90;0.80;;;8.50;97.30;;;;;;5050167;28;20214;-89
2023/12/24 06:13:24;;;;;;;1.17;1.10;;;8.50;97.30;;;;;;5042564;28;20266;-78
2023/12/24 06:15:50;;;;;;;0.90;0.80;;;8.60;97.30;;;;;;5032178;28;20595;-82
2023/12/24 06:18:16;;;;;;;0.80;0.70;;;8.60;97.30;;;;;;5037499;28;20218;-83
2023/12/24 06:20:42;;;;;;;1.00;0.90;;;8.70;97.30;;;;;;5057618;28;20210;-88
2023/12/24 06:23:07;;;;;;;0.90;0.80;;;8.80;97.30;;;;;;5045746;28;20906;-87
2023/12/24 06:25:34;;;;;;;0.90;0.80;;;8.80;97.30;;;;;;5065583;28;20183;-81
2023/12/24 06:27:59;;;;;;;0.90;0.80;;;8.80;97.30;;;;;;5051680;28;20164;-83
2023/12/24 06:30:25;;;;;;;0.83;0.73;;;8.80;97.30;;;;;;5043844;28;20445;-76
2023/12/24 06:32:51;;;;;;;0.90;0.80;;;8.90;97.30;;;;;;5040709;28;20200;-77
2023/12/24 06:35:17;;;;;;;1.00;0.90;;;8.90;97.30;;;;;;5060350;28;20176;-77
2023/12/24 06:37:42;;;;;;;0.90;0.80;;;8.90;97.30;;;;;;5043119;28;20679;-79
2023/12/24 06:40:08;;;;;;;0.90;0.80;;;8.90;97.30;;;;;;5027614;28;20431;-85
2023/12/24 06:42:34;;;;;;;0.80;0.70;;;9.00;97.30;;;;;;5039557;28;20244;-77
2023/12/24 06:44:59;;;;;;;0.90;0.80;;;9.00;97.30;;;;;;5022815;28;21011;-81
2023/12/24 06:47:25;;;;;;;0.90;0.80;;;9.00;97.30;;;;;;5040799;28;20187;-84
2023/12/24 06:49:50;;;;;;;0.90;0.80;;;9.00;97.30;;;;;;5045906;28;20543;-74
2023/12/24 06:52:16;;;;;;;0.90;0.80;;;9.00;97.30;;;;;;5047666;28;20200;-78
2023/12/24 06:54:41;;;;;;;0.90;0.80;;;9.10;97.30;;;;;;5055497;28;20548;-80
2023/12/24 06:57:08;;;;;;;0.80;0.70;;;9.10;97.30;;;;;;5050885;28;20673;-81
2023/12/24 06:59:34;;;;;;;0.90;0.80;;;9.10;97.30;;;;;;5050852;28;20171;-77
2023/12/24 07:01:59;;;;;;;0.80;0.70;;;9.10;97.30;;;;;;5029065;28;20479;-86
2023/12/24 07:04:25;;;;;;;0.80;0.70;;;9.20;97.30;;;;;;5032621;28;20414;-70
2023/12/24 07:06:50;;;;;;;0.90;0.80;;;9.20;97.30;;;;;;5031169;28;20537;-78
2023/12/24 07:09:16;;;;;;;1.00;0.90;;;9.20;97.30;;;;;;5033245;28;20300;-81
2023/12/24 07:11:41;;;;;;;0.87;0.77;;;9.20;97.30;;;;;;5032775;28;20200;-76
2023/12/24 07:14:07;;;;;;;0.80;0.70;;;9.20;97.30;;;;;;5029530;28;20187;-74
2023/12/24 07:16:32;;;;;;;0.80;0.70;;;9.20;97.30;;;;;;5028409;28;20469;-75
2023/12/24 07:18:58;;;;;;;1.30;1.20;;;9.30;97.30;;;;;;5033162;28;20263;-71
2023/12/24 07:21:24;;;;;;;0.90;0.80;;;9.40;97.30;;;;;;5051705;28;20199;-74
2023/12/24 07:23:50;;;;;;;0.90;0.80;;;9.40;97.30;;;;;;5026662;28;20781;-78
2023/12/24 07:26:16;;;;;;;0.80;0.70;;;9.40;97.30;;;;;;5026006;28;20422;-79
2023/12/24 07:28:41;;;;;;;1.00;0.90;;;9.40;97.30;;;;;;5032480;28;20171;-74
2023/12/24 07:31:07;;;;;;;0.90;0.80;;;9.40;97.30;;;;;;5035028;28;20239;-78
2023/12/24 07:33:32;;;;;;;0.80;0.70;;;9.40;97.30;;;;;;5034059;28;20222;-75
2023/12/24 07:35:58;;;;;;;0.70;0.70;;;9.40;97.30;;;;;;5034994;28;20202;-75
2023/12/24 07:38:29;;;;;;;0.90;0.80;;;9.50;97.30;;;;;;5030752;28;20242;-73
2023/12/24 07:40:54;;;;;;;0.90;0.80;;;9.50;97.30;;;;;;5022782;28;20204;-80
2023/12/24 07:43:20;;;;;;;0.90;0.80;;;9.60;97.30;;;;;;5036302;28;20411;-72
2023/12/24 07:45:45;;;;;;;0.80;0.70;;;9.60;97.30;;;;;;5033824;28;20214;-70
2023/12/24 07:48:11;;;;;;;0.80;0.70;;;9.60;97.30;;;;;;5033337;28;20176;-73
2023/12/24 07:50:37;;;;;;;0.80;0.70;;;9.70;97.30;;;;;;5040105;28;20570;-69
2023/12/24 07:53:02;;;;;;;0.80;0.70;;;9.70;97.30;;;;;;5029304;28;20192;-79
2023/12/24 07:55:28;;;;;;;0.90;0.80;;;9.70;97.30;;;;;;5030218;28;20668;-76
2023/12/24 07:57:53;;;;;;;0.90;0.80;;;9.70;97.30;;;;;;5028732;28;20302;-70
2023/12/24 08:00:19;;;;;;;0.90;0.80;;;9.70;97.30;;;;;;5031621;28;20176;-76
2023/12/24 08:02:44;;;;;;;0.90;0.80;;;9.70;97.30;;;;;;5044718;28;20773;-75
2023/12/24 08:05:10;;;;;;;0.90;0.80;;;9.70;97.30;;;;;;5047167;28;20176;-85
2023/12/24 08:07:36;;;;;;;0.90;0.80;;;9.80;97.30;;;;;;5044200;28;20663;-73
2023/12/24 08:10:01;;;;;;;0.80;0.70;;;9.80;97.30;;;;;;5048350;28;20176;-73
2023/12/24 08:12:27;;;;;;;0.80;0.70;;;9.80;97.30;;;;;;5027446;28;20722;-75
2023/12/24 08:14:52;;;;;;;0.80;0.70;;;9.80;97.30;;;;;;5046556;28;20283;-80
2023/12/24 08:17:18;;;;;;;0.80;0.70;;;9.80;97.30;;;;;;5062714;22;20175;-73
2023/12/24 08:19:43;;;;;;;0.90;0.80;;;9.70;97.30;;;;;;5064791;28;20202;-72
2023/12/24 08:22:10;;;;;;;0.90;0.80;;;9.60;97.30;;;;;;5065056;28;20553;-73
2023/12/24 08:24:37;;;;;;;0.90;0.80;;;9.60;97.30;;;;;;5068085;28;20207;-72
2023/12/24 08:27:05;;;;;;;0.90;0.80;;;9.70;97.30;;;;;;5061901;28;20803;-73
2023/12/24 08:29:31;;;;;;;0.83;0.73;;;9.70;97.30;;;;;;5063697;28;20425;-71
2023/12/24 08:31:57;;;;;;;0.90;0.80;;;9.80;97.30;;;;;;5073973;28;20811;-71
2023/12/24 08:34:23;;;;;;;0.80;0.70;;;9.80;97.30;;;;;;5084160;28;20417;-71
2023/12/24 08:36:48;;;;;;;0.90;0.80;;;9.80;97.30;;;;;;5082759;28;20194;-73
2023/12/24 08:39:14;;;;;;;0.87;0.77;;;9.80;97.30;;;;;;5064912;28;20417;-75
2023/12/24 08:41:40;;;;;;;0.80;0.70;;;9.90;97.30;;;;;;5067992;28;20292;-72
2023/12/24 08:44:06;;;;;;;0.80;0.70;;;9.90;97.30;;;;;;5077269;28;20191;-70
2023/12/24 08:46:31;;;;;;;0.80;0.70;;;9.90;97.30;;;;;;5079193;28;20820;-71
2023/12/24 08:48:57;;;;;;;1.37;1.27;;;9.90;97.30;;;;;;5079992;28;20668;-69
2023/12/24 08:51:23;;;;;;;0.80;0.70;;;9.90;97.30;;;;;;5070947;28;20222;-72
2023/12/24 08:53:48;;;;;;;2.20;0.90;;;9.90;97.30;;;;;;5077359;28;20205;-74
2023/12/24 08:56:15;;;;;;;0.90;0.80;;;10.00;97.30;;;;;;5062715;28;20171;-73
2023/12/24 08:58:41;;;;;;;0.87;0.77;;;10.00;97.30;;;;;;5069547;28;20423;-67
2023/12/24 09:01:06;;;;;;;1.43;1.10;;;10.00;97.30;;;;;;5066933;28;20468;-69
2023/12/24 09:03:32;;;;;;;1.57;1.00;;;10.00;97.30;;;;;;5069682;28;20181;-70
2023/12/24 09:05:57;;;;;;;1.00;1.00;;;10.00;97.30;;;;;;5075042;28;20190;-69
2023/12/24 09:08:23;;;;;;;0.90;0.80;;;10.00;97.30;;;;;;5074457;28;20190;-67
2023/12/24 09:10:48;;;;;;;0.90;0.80;;;10.10;97.30;;;;;;5078566;28;20252;-69
2023/12/24 09:13:14;;;;;;;1.00;0.90;;;10.10;97.30;;;;;;5080711;28;20240;-69
2023/12/24 09:15:39;;;;;;;0.80;0.70;;;10.10;97.30;;;;;;5078070;28;20261;-70
2023/12/24 09:18:06;;;;;;;0.80;0.70;;;10.10;97.30;;;;;;5083793;28;20218;-71
2023/12/24 09:20:31;;;;;;;0.80;0.70;;;10.10;97.30;;;;;;5077535;28;20287;-71
2023/12/24 09:22:57;;;;;;;1.17;1.07;;;10.10;97.30;;;;;;5074884;28;21243;-68
2023/12/24 09:25:23;;;;;;;0.90;0.80;;;10.20;97.30;;;;;;5074457;28;20175;-69
2023/12/24 09:27:49;;;;;;;0.90;0.80;;;10.20;97.30;;;;;;5068146;28;20175;-71
2023/12/24 09:30:15;;;;;;;1.00;0.90;;;10.30;97.30;;;;;;5077934;28;20250;-71
2023/12/24 09:32:43;;;;;;;0.93;0.83;;;10.30;97.30;;;;;;5068054;28;20542;-71
2023/12/24 09:35:09;;;;;;;0.90;0.80;;;10.30;97.30;;;;;;5076052;28;20681;-69
2023/12/24 09:37:34;;;;;;;0.90;0.80;;;10.30;97.30;;;;;;5067041;28;20433;-70
2023/12/24 09:40:00;;;;;;;0.80;0.70;;;10.30;97.30;;;;;;5068601;28;20420;-70
2023/12/24 09:42:25;;;;;;;0.90;0.80;;;10.40;97.30;;;;;;5064039;28;20286;-70
2023/12/24 09:44:51;;;;;;;0.80;0.70;;;10.40;97.30;;;;;;5066949;28;20202;-70
2023/12/24 09:47:16;;;;;;;0.90;0.80;;;10.40;97.30;;;;;;5066665;28;20179;-75
2023/12/24 09:49:42;;;;;;;0.90;0.80;;;10.50;97.30;;;;;;5069694;28;20202;-70
2023/12/24 09:52:07;;;;;;;0.90;0.80;;;10.50;97.30;;;;;;5070193;28;20203;-71
2023/12/24 09:54:33;;;;;;;0.90;0.80;;;10.60;97.30;;;;;;5059743;28;20194;-71
2023/12/24 09:56:59;;;;;;;0.90;0.80;;;10.60;97.30;;;;;;5061353;28;20659;-71
2023/12/24 09:59:25;;;;;;;0.80;0.70;;;10.60;97.30;;;;;;5068912;28;20655;-70
2023/12/24 10:01:51;;;;;;;0.90;0.80;;;10.70;97.30;;;;;;5070354;28;20490;-69
2023/12/24 10:04:16;;;;;;;0.90;0.80;;;10.70;97.30;;;;;;5068366;28;20554;-69
2023/12/24 10:06:56;;;;;;;0.90;0.80;;;10.70;97.30;;;;;;5068834;28;20202;-70
2023/12/24 10:09:22;;;;;;;1.47;1.37;;;10.70;97.30;;;;;;5063736;28;20273;-70
2023/12/24 10:12:05;;;;;;;0.90;0.80;;;10.70;97.30;;;;;;5068465;28;20468;-71
2023/12/24 10:14:32;;;;;;;0.90;0.80;;;10.70;97.30;;;;;;5064210;28;20432;-72
2023/12/24 10:17:01;;;;;;;1.10;1.00;;;10.70;97.30;;;;;;5070122;28;20525;-70
2023/12/24 10:19:27;;;;;;;0.80;0.70;;;10.70;97.30;;;;;;5073466;28;20457;-72
2023/12/24 10:22:06;;;;;;;0.90;0.80;;;10.70;97.30;;;;;;5069945;28;20538;-73
2023/12/24 10:24:40;;;;;;;1.57;1.00;;;10.80;97.30;;;;;;5068467;28;20448;-73
2023/12/24 10:27:07;;;;;;;1.10;1.10;;;10.80;97.30;;;;;;5066203;28;20457;-74
2023/12/24 10:29:34;;;;;;;0.90;0.80;;;10.80;97.30;;;;;;5068353;28;20441;-74
2023/12/24 10:32:00;;;;;;;0.80;0.70;;;10.80;97.30;;;;;;5072435;28;20433;-71
2023/12/24 10:34:26;;;;;;;0.80;0.70;;;10.80;97.30;;;;;;5071068;28;20441;-70
2023/12/24 10:36:51;;;;;;;1.13;1.03;;;10.80;97.30;;;;;;5070954;28;20183;-71
2023/12/24 10:39:24;;;;;;;1.00;0.90;;;10.80;97.30;;;;;;5066931;28;20350;-70
2023/12/24 10:41:53;;;;;;;0.87;0.77;;;10.80;97.30;;;;;;5065710;28;20708;-71
2023/12/24 10:44:23;;;;;;;1.00;0.90;;;10.90;97.30;;;;;;5068670;28;20417;-70
2023/12/24 10:46:49;;;;;;;1.33;1.23;;;10.90;97.30;;;;;;5067665;28;20409;-71
2023/12/24 10:49:15;;;;;;;0.90;0.80;;;10.90;97.30;;;;;;5067495;28;20949;-70
2023/12/24 10:51:40;;;;;;;1.00;0.90;;;10.90;97.30;;;;;;5072395;28;20433;-70
2023/12/24 10:54:10;;;;;;;0.90;0.80;;;11.00;97.30;;;;;;5067996;28;20709;-72
2023/12/24 10:57:11;;;;;;;0.90;0.80;;;11.00;97.30;;;;;;5066708;28;20189;-72
2023/12/24 10:59:53;;;;;;;0.80;0.70;;;11.00;97.30;;;;;;5064506;28;20408;-70
2023/12/24 11:02:19;;;;;;;1.00;0.90;;;11.00;97.30;;;;;;5069101;28;20475;-72
2023/12/24 11:04:45;;;;;;;1.00;0.90;;;11.10;97.30;;;;;;5069686;28;20417;-70
2023/12/24 11:07:34;;;;;;;0.90;0.80;;;11.10;97.30;;;;;;5062297;28;20269;-71
2023/12/24 11:10:04;;;;;;;0.90;0.80;;;11.10;97.30;;;;;;5068075;28;20428;-73
2023/12/24 11:12:34;;;;;;;1.20;0.97;;;11.10;97.30;;;;;;5067898;28;20421;-72
2023/12/24 11:15:01;;;;;;;1.27;1.17;;;11.10;97.30;;;;;;5066361;28;20677;-71
2023/12/24 11:17:36;;;;;;;0.80;0.70;;;11.10;97.30;;;;;;5066556;28;20424;-72
2023/12/24 11:20:24;;;;;;;0.90;0.80;;;11.10;97.30;;;;;;5066752;28;20425;-71
2023/12/24 11:23:04;;;;;;;0.90;0.80;;;11.20;97.30;;;;;;5068429;28;20461;-72
2023/12/24 11:25:47;;;;;;;1.00;0.90;;;11.20;97.30;;;;;;5066642;28;20994;-71
2023/12/24 11:28:33;;;;;;;0.90;0.80;;;11.20;97.30;;;;;;5068937;28;20410;-71
2023/12/24 11:30:58;;;;;;;0.90;0.80;;;11.20;97.30;;;;;;5075161;28;20429;-71
2023/12/24 11:33:33;;;;;;;0.90;0.80;;;11.20;97.30;;;;;;5071618;28;21002;-72
2023/12/24 11:36:08;;;;;;;0.97;0.87;;;11.20;97.30;;;;;;5073965;28;20178;-71
2023/12/24 11:38:34;;;;;;;0.83;0.73;;;11.30;97.30;;;;;;5066867;28;20416;-79
2023/12/24 11:41:13;;;;;;;0.90;0.80;;;11.30;97.30;;;;;;5066524;28;20448;-70
2023/12/24 11:43:41;;;;;;;0.90;0.80;;;11.40;97.30;;;;;;5065520;28;20175;-72
2023/12/24 11:46:07;;;;;;;0.80;0.70;;;11.40;97.30;;;;;;5062781;28;20519;-70
2023/12/24 11:48:35;;;;;;;1.00;0.90;;;11.40;97.30;;;;;;5067797;28;20424;-72
2023/12/24 11:51:07;;;;;;;1.47;1.37;;;11.40;97.30;;;;;;5067616;28;20429;-74
2023/12/24 11:53:36;;;;;;;0.90;0.80;;;11.40;97.30;;;;;;5065516;28;21233;-72
2023/12/24 11:56:08;;;;;;;1.23;1.13;;;11.40;97.30;;;;;;5063027;28;20438;-75
2023/12/24 11:58:34;;;;;;;0.90;0.80;;;11.40;97.30;;;;;;5064592;28;20429;-76
2023/12/24 12:01:03;;;;;;;1.00;0.90;;;11.50;97.30;;;;;;5066601;28;20692;-75
2023/12/24 12:03:33;;;;;;;1.00;0.90;;;11.40;97.30;;;;;;5066858;28;20424;-73
2023/12/24 12:05:59;;;;;;;0.90;0.80;;;11.40;97.30;;;;;;5065329;28;20901;-76
2023/12/24 12:08:25;;;;;;;0.90;0.80;;;11.50;97.30;;;;;;5047354;28;20424;-71
2023/12/24 12:10:51;;;;;;;0.90;0.80;;;11.50;97.30;;;;;;5066512;28;20441;-74
2023/12/24 12:13:17;;;;;;;0.90;0.80;;;11.50;97.30;;;;;;5066497;28;20229;-73
2023/12/24 12:15:42;;;;;;;0.90;0.80;;;11.50;97.30;;;;;;5067378;28;20429;-71
2023/12/24 12:18:08;;;;;;;1.30;1.20;;;11.40;97.30;;;;;;5067914;28;20226;-69
2023/12/24 12:20:34;;;;;;;0.90;0.80;;;11.40;97.30;;;;;;5069007;28;20277;-70
2023/12/24 12:23:00;;;;;;;0.90;0.80;;;11.40;97.30;;;;;;5066868;28;20660;-74
2023/12/24 12:25:25;;;;;;;0.80;0.70;;;11.40;97.30;;;;;;5066761;28;20673;-72
2023/12/24 12:27:51;;;;;;;0.87;0.77;;;11.40;97.30;;;;;;5066578;28;20179;-69
2023/12/24 12:30:19;;;;;;;0.90;0.80;;;11.40;97.30;;;;;;5067440;28;20599;-72
2023/12/24 12:32:45;;;;;;;0.90;0.80;;;11.40;97.30;;;;;;5060118;28;21043;-74
2023/12/24 12:35:10;;;;;;;1.10;1.00;;;11.30;97.30;;;;;;5065834;28;20437;-69
2023/12/24 12:37:36;;;;;;;0.83;0.80;;;11.30;97.30;;;;;;5057145;28;20290;-70
2023/12/24 12:40:03;;;;;;;1.10;1.00;;;11.30;97.30;;;;;;5059613;28;20202;-70
2023/12/24 12:42:28;;;;;;;0.90;0.80;;;11.30;97.30;;;;;;5063614;28;20206;-70
2023/12/24 12:44:54;;;;;;;0.90;0.80;;;11.30;97.30;;;;;;5061199;28;20450;-71
2023/12/24 12:47:19;;;;;;;0.80;0.70;;;11.40;97.30;;;;;;5063005;28;20168;-70
2023/12/24 12:49:46;;;;;;;0.90;0.80;;;11.40;97.30;;;;;;5062112;28;20718;-69
2023/12/24 12:52:11;;;;;;;1.07;1.00;;;11.40;97.30;;;;;;5062300;28;20209;-70
2023/12/24 12:54:37;;;;;;;0.90;0.80;;;11.40;97.30;;;;;;5066790;28;20516;-70
2023/12/24 12:57:03;;;;;;;0.90;0.80;;;11.40;97.30;;;;;;5066695;28;20217;-70
2023/12/24 12:59:28;;;;;;;1.00;0.90;;;11.40;97.30;;;;;;5066809;28;20183;-69
2023/12/24 13:02:00;;;;;;;0.90;0.80;;;11.40;97.30;;;;;;5064259;28;20838;-73
2023/12/24 13:04:33;;;;;;;0.90;0.80;;;11.40;97.30;;;;;;5063861;28;20555;-70
2023/12/24 13:07:02;;;;;;;1.10;1.00;;;11.40;97.30;;;;;;5066737;28;20501;-70
2023/12/24 13:09:32;;;;;;;0.90;0.80;;;11.40;97.30;;;;;;5058100;28;20425;-70
2023/12/24 13:12:05;;;;;;;1.00;0.90;;;11.40;97.30;;;;;;5059795;28;20445;-71
2023/12/24 13:14:31;;;;;;;0.80;0.70;;;11.40;97.30;;;;;;5051608;28;20427;-70
2023/12/24 13:17:10;;;;;;;1.50;1.50;;;11.40;97.30;;;;;;5058814;28;20518;-70
2023/12/24 13:19:38;;;;;;;0.90;0.80;;;11.40;97.30;;;;;;5060981;28;20499;-70
2023/12/24 13:22:05;;;;;;;0.87;0.77;;;11.40;97.30;;;;;;5060199;28;20484;-70
2023/12/24 13:24:34;;;;;;;1.00;1.00;;;11.40;97.30;;;;;;5067918;28;20413;-70
2023/12/24 13:27:00;;;;;;;1.07;0.97;;;11.40;97.30;;;;;;5070397;28;20457;-73
2023/12/24 13:29:26;;;;;;;0.90;0.80;;;11.40;97.30;;;;;;5069205;28;20520;-70
2023/12/24 13:31:52;;;;;;;0.90;0.80;;;11.40;97.30;;;;;;5066554;28;20897;-72
2023/12/24 13:34:20;;;;;;;0.90;0.80;;;11.40;97.30;;;;;;5070780;28;20418;-72
2023/12/24 13:36:50;;;;;;;1.40;1.30;;;11.40;97.30;;;;;;5069296;28;20262;-71
2023/12/24 13:39:15;;;;;;;0.90;0.80;;;11.40;97.30;;;;;;5063529;28;20938;-70
2023/12/24 13:41:42;;;;;;;0.80;0.70;;;11.30;97.30;;;;;;5068842;28;20464;-70
2023/12/24 13:44:08;;;;;;;1.00;0.90;;;11.30;97.30;;;;;;5074247;28;20225;-71
2023/12/24 13:46:34;;;;;;;0.90;0.80;;;11.30;97.30;;;;;;5071042;28;20433;-70
2023/12/24 13:48:59;;;;;;;0.90;0.80;;;11.30;97.30;;;;;;5067698;28;20472;-70
2023/12/24 13:51:25;;;;;;;0.80;0.70;;;11.40;97.30;;;;;;5055336;28;20203;-71
2023/12/24 13:53:51;;;;;;;1.10;1.00;;;11.40;97.30;;;;;;5061084;28;20636;-70
2023/12/24 13:56:16;;;;;;;0.90;0.80;;;11.40;97.30;;;;;;5057641;28;20183;-69
2023/12/24 13:58:42;;;;;;;0.90;0.80;;;11.40;97.30;;;;;;5064960;28;20190;-69
2023/12/24 14:01:08;;;;;;;0.90;0.80;;;11.40;97.30;;;;;;5065054;28;20495;-71
2023/12/24 14:03:33;;;;;;;0.60;0.60;;;11.40;97.30;;;;;;5065424;28;20174;-72
2023/12/24 14:05:59;;;;;;;0.90;0.80;;;11.40;97.30;;;;;;5066173;28;20176;-71
2023/12/24 14:08:26;;;;;;;0.90;0.80;;;11.40;97.30;;;;;;5058878;28;20717;-71
2023/12/24 14:10:52;;;;;;;0.80;0.70;;;11.40;97.30;;;;;;5066506;28;20835;-71
2023/12/24 14:13:17;;;;;;;0.90;0.80;;;11.30;97.30;;;;;;5067526;28;20432;-68
2023/12/24 14:15:43;;;;;;;0.80;0.70;;;11.30;97.30;;;;;;5067333;28;20270;-72
2023/12/24 14:18:08;;;;;;;0.90;0.80;;;11.30;97.30;;;;;;5080360;22;20525;-89
2023/12/24 14:20:34;;;;;;;1.00;0.90;;;11.30;97.30;;;;;;5041671;28;20186;-91
2023/12/24 14:22:59;;;;;;;0.90;0.80;;;11.30;97.30;;;;;;5059412;28;20305;-89
2023/12/24 14:25:25;;;;;;;0.93;0.83;;;11.30;97.30;;;;;;5058015;28;20644;-88
2023/12/24 14:27:51;;;;;;;0.90;0.80;;;11.30;97.30;;;;;;5054897;28;20811;-89
2023/12/24 14:30:16;;;;;;;0.87;0.77;;;11.30;97.30;;;;;;5053752;28;20517;-87
2023/12/24 14:32:42;;;;;;;0.90;0.80;;;11.30;97.30;;;;;;5058867;28;20662;-89
2023/12/24 14:35:08;;;;;;;1.00;0.90;;;11.30;97.30;;;;;;5052978;28;20219;-89
2023/12/24 14:37:35;;;;;;;1.43;1.30;;;11.30;97.30;;;;;;5059558;28;20267;-89
2023/12/24 14:40:01;;;;;;;0.90;0.80;;;11.20;97.30;;;;;;5057927;28;20441;-87
2023/12/24 14:42:28;;;;;;;0.90;0.80;;;11.30;97.30;;;;;;5052699;28;20481;-88
2023/12/24 14:44:53;;;;;;;0.90;0.80;;;11.30;97.30;;;;;;5052740;28;20437;-88
2023/12/24 14:47:24;;;;;;;0.90;0.80;;;11.30;97.30;;;;;;5053398;28;20414;-88
2023/12/24 14:49:50;;;;;;;0.90;0.80;;;11.30;97.30;;;;;;5051685;28;20295;-89
2023/12/24 14:52:15;;;;;;;1.40;1.30;;;11.30;97.30;;;;;;5053005;28;20525;-89
2023/12/24 14:54:41;;;;;;;0.90;0.80;;;11.30;97.30;;;;;;5046940;28;20210;-88
2023/12/24 14:57:06;;;;;;;1.00;0.90;;;11.30;97.30;;;;;;5049780;28;20195;-89
2023/12/24 14:59:31;;;;;;;1.00;0.90;;;11.30;97.30;;;;;;5048509;28;20203;-88
2023/12/24 15:01:58;;;;;;;1.00;0.90;;;11.40;97.30;;;;;;5053054;28;20203;-89
2023/12/24 15:04:25;;;;;;;0.87;0.77;;;11.40;97.30;;;;;;5052598;28;20180;-90
2023/12/24 15:06:50;;;;;;;1.00;0.90;;;11.40;97.30;;;;;;5055453;28;20426;-90
2023/12/24 15:09:16;;;;;;;1.20;1.00;;;11.40;97.30;;;;;;5050233;28;20508;-89
2023/12/24 15:11:41;;;;;;;1.00;0.90;;;11.40;97.30;;;;;;5049214;28;20187;-89
2023/12/24 15:14:10;;;;;;;0.80;0.70;;;11.40;97.30;;;;;;5055351;28;20226;-89
2023/12/24 15:16:36;;;;;;;0.90;0.80;;;11.40;97.30;;;;;;5054822;28;20180;-88
2023/12/24 15:19:01;;;;;;;1.20;1.10;;;11.40;97.30;;;;;;5050144;28;20536;-90
2023/12/24 15:21:27;;;;;;;1.10;1.00;;;11.40;97.30;;;;;;5049429;28;20472;-89
2023/12/24 15:23:55;;;;;;;0.90;0.80;;;11.40;97.30;;;;;;5054167;28;20180;-88
2023/12/24 15:26:21;;;;;;;11.60;2.50;;;11.40;97.30;;;;;;5054815;28;20559;-90
2023/12/24 15:28:51;;;;;;;0.97;0.87;;;11.50;97.30;;;;;;5050418;28;21003;-88
2023/12/24 15:31:17;;;;;;;0.80;0.70;;;11.50;97.30;;;;;;5046220;28;20427;-90
2023/12/24 15:33:43;;;;;;;0.87;0.80;;;11.50;97.30;;;;;;5055089;28;20409;-90
2023/12/24 15:36:08;;;;;;;1.00;0.90;;;11.60;97.30;;;;;;5044432;28;20402;-90
2023/12/24 15:38:34;;;;;;;1.17;1.07;;;11.60;97.30;;;;;;5052749;28;20195;-90
2023/12/24 15:40:59;;;;;;;1.00;0.90;;;11.60;97.30;;;;;;5052881;28;20176;-90
2023/12/24 15:43:28;;;;;;;1.37;1.27;;;11.50;97.30;;;;;;5051924;28;20191;-91
2023/12/24 15:45:53;;;;;;;0.90;0.80;;;11.50;97.30;;;;;;5054033;28;20293;-89
2023/12/24 15:48:19;;;;;;;1.00;0.90;;;11.50;97.30;;;;;;5050194;28;20458;-89
2023/12/24 15:50:45;;;;;;;0.90;0.80;;;11.60;97.30;;;;;;5047387;28;20263;-90
2023/12/24 15:53:10;;;;;;;5.80;1.13;;;11.50;97.30;;;;;;5049279;28;20415;-91
2023/12/24 15:55:36;;;;;;;0.90;0.80;;;11.60;97.30;;;;;;5053045;28;20218;-87
2023/12/24 15:58:02;;;;;;;0.90;0.80;;;11.60;97.30;;;;;;5047358;28;20203;-91
2023/12/24 16:00:30;;;;;;;0.90;0.80;;;11.60;97.30;;;;;;5050814;28;20245;-90
2023/12/24 16:02:56;;;;;;;1.00;0.90;;;11.60;97.30;;;;;;5070378;28;20465;-89
2023/12/24 16:05:23;;;;;;;1.00;0.90;;;11.60;97.30;;;;;;5049484;28;20430;-88
2023/12/24 16:07:49;;;;;;;1.00;0.90;;;11.60;97.30;;;;;;5047169;28;20501;-89
2023/12/24 16:10:14;;;;;;;0.90;0.80;;;11.60;97.30;;;;;;5043029;28;20518;-89
2023/12/24 16:12:39;;;;;;;1.10;1.00;;;11.60;97.30;;;;;;5053553;28;20183;-89
2023/12/24 16:15:07;;;;;;;0.90;0.80;;;11.60;97.30;;;;;;5052848;28;20243;-89
2023/12/24 16:17:32;;;;;;;0.90;0.80;;;11.60;97.30;;;;;;5049470;28;20616;-89
2023/12/24 16:19:58;;;;;;;1.03;0.93;;;11.60;97.30;;;;;;5050074;28;20469;-87
2023/12/24 16:22:23;;;;;;;0.87;0.77;;;11.70;97.30;;;;;;5057383;28;20245;-88
2023/12/24 16:24:51;;;;;;;1.00;0.90;;;11.70;97.30;;;;;;5053388;28;20634;-88
2023/12/24 16:27:17;;;;;;;0.90;0.80;;;11.70;97.30;;;;;;5055085;28;20725;-89
2023/12/24 16:29:42;;;;;;;0.97;0.87;;;11.70;97.30;;;;;;5050160;28;20544;-88
2023/12/24 16:32:08;;;;;;;0.90;0.80;;;11.70;97.30;;;;;;5046491;28;20429;-91
2023/12/24 16:34:33;;;;;;;1.00;0.90;;;11.70;97.30;;;;;;5055014;28;20196;-90
2023/12/24 16:37:01;;;;;;;0.90;0.80;;;11.70;97.30;;;;;;5050870;28;20184;-90
2023/12/24 16:39:26;;;;;;;0.93;0.83;;;11.60;97.30;;;;;;5050336;28;20207;-89
2023/12/24 16:41:52;;;;;;;1.00;0.90;;;11.60;97.30;;;;;;5050398;28;20473;-90
2023/12/24 16:44:19;;;;;;;1.03;0.93;;;11.60;97.30;;;;;;5052283;28;20195;-90
2023/12/24 16:46:45;;;;;;;0.80;0.70;;;11.50;97.30;;;;;;5052396;28;20168;-91
2023/12/24 16:49:11;;;;;;;0.90;0.80;;;11.50;97.30;;;;;;5047145;28;20450;-88
2023/12/24 16:51:37;;;;;;;1.20;1.10;;;11.50;97.30;;;;;;5050436;28;20175;-93
2023/12/24 16:54:02;;;;;;;0.90;0.80;;;11.60;97.30;;;;;;5052589;28;20530;-88
2023/12/24 16:56:28;;;;;;;0.80;0.70;;;11.60;97.30;;;;;;5051042;28;20186;-90
2023/12/24 16:58:53;;;;;;;1.00;0.90;;;11.60;97.30;;;;;;5049497;28;20207;-90
2023/12/24 17:01:19;;;;;;;1.30;1.20;;;11.70;97.30;;;;;;5051298;28;20184;-90
2023/12/24 17:03:44;;;;;;;1.30;1.20;;;11.60;97.30;;;;;;5049817;28;20205;-90
2023/12/24 17:06:12;;;;;;;0.80;0.70;;;11.50;97.30;;;;;;5048219;28;20278;-89
2023/12/24 17:08:38;;;;;;;0.90;0.80;;;11.40;97.30;;;;;;5050279;28;20317;-89
2023/12/24 17:11:04;;;;;;;0.93;0.83;;;11.40;97.30;;;;;;5051307;28;20900;-89
2023/12/24 17:13:30;;;;;;;0.90;0.80;;;11.40;97.30;;;;;;5050491;28;20553;-91
2023/12/24 17:15:55;;;;;;;0.90;0.80;;;11.40;97.30;;;;;;5048082;28;20497;-90
2023/12/24 17:18:21;;;;;;;0.90;0.80;;;11.40;97.30;;;;;;5043301;28;20235;-89
2023/12/24 17:20:47;;;;;;;1.00;0.90;;;11.40;97.30;;;;;;5052571;28;20719;-88
2023/12/24 17:23:12;;;;;;;0.90;0.80;;;11.50;97.30;;;;;;5051656;28;20249;-90
2023/12/24 17:25:38;;;;;;;1.00;0.90;;;11.50;97.30;;;;;;5050196;28;20175;-91
2023/12/24 17:28:04;;;;;;;1.20;1.10;;;11.50;97.30;;;;;;5049044;28;20200;-90
2023/12/24 17:30:29;;;;;;;1.13;1.03;;;11.30;97.30;;;;;;5050172;28;20171;-88
2023/12/24 17:32:55;;;;;;;0.87;0.77;;;11.20;97.30;;;;;;5049630;28;20446;-90
2023/12/24 17:35:20;;;;;;;1.00;0.90;;;11.10;97.30;;;;;;5050352;28;20263;-92
2023/12/24 17:37:47;;;;;;;0.83;0.73;;;11.10;97.30;;;;;;5050439;28;20191;-92
2023/12/24 17:40:16;;;;;;;1.00;0.90;;;11.00;97.30;;;;;;5047109;28;20203;-90
2023/12/24 17:42:43;;;;;;;1.13;1.03;;;10.90;97.30;;;;;;5051517;28;20449;-90
2023/12/24 17:45:09;;;;;;;1.20;0.90;;;10.90;97.30;;;;;;5050252;28;20429;-91
2023/12/24 17:47:35;;;;;;;0.93;0.83;;;10.80;97.30;;;;;;5052835;28;20452;-91
2023/12/24 17:50:01;;;;;;;0.90;0.80;;;10.80;97.30;;;;;;5050047;28;20454;-91